createdAt,value
2024-03-23T00:05:23.527Z,13.80
2024-03-23T00:10:51.811Z,16.90
2024-03-23T00:16:01.731Z,13.80
2024-03-23T00:21:13.998Z,15.00
2024-03-23T00:26:59.311Z,14.70
2024-03-23T00:32:04.123Z,14.30
2024-03-23T00:37:37.176Z,15.50
2024-03-23T00:43:02.760Z,16.00
2024-03-23T00:48:47.032Z,17.10
2024-03-23T00:59:51.079Z,16.80
2024-03-23T01:05:14.740Z,15.50
2024-03-23T01:10:33.376Z,16.40
2024-03-23T01:15:42.675Z,17.40
2024-03-23T01:20:57.822Z,17.20
2024-03-23T01:26:49.753Z,16.60
2024-03-23T01:32:48.956Z,17.10
2024-03-23T01:39:03.066Z,16.40
2024-03-23T01:45:27.201Z,16.00
2024-03-23T01:51:41.406Z,17.40
2024-03-23T01:58:10.484Z,14.90
2024-03-23T02:04:34.237Z,16.50
2024-03-23T02:10:58.951Z,14.60
2024-03-23T02:17:06.706Z,15.20
2024-03-23T02:23:21.782Z,15.80
2024-03-23T02:29:28.511Z,13.10
2024-03-23T02:35:52.331Z,13.70
2024-03-23T02:41:56.921Z,13.70
2024-03-23T02:47:59.721Z,13.00
2024-03-23T02:53:54.249Z,13.30
2024-03-23T03:00:18.833Z,13.50
2024-03-23T03:06:43.622Z,12.70
2024-03-23T03:13:15.594Z,13.70
2024-03-23T03:19:29.519Z,14.00
2024-03-23T03:25:55.059Z,12.80
2024-03-23T03:32:00.908Z,13.30
2024-03-23T03:38:23.534Z,14.00
2024-03-23T03:44:48.514Z,13.70
2024-03-23T03:51:13.570Z,14.10
2024-03-23T03:57:21.135Z,13.10
2024-03-23T04:03:45.581Z,14.30
2024-03-23T04:10:02.068Z,16.10
2024-03-23T04:16:10.817Z,13.60
2024-03-23T04:22:35.007Z,14.10
2024-03-23T04:28:59.244Z,15.20
2024-03-23T04:35:05.738Z,15.10
2024-03-23T04:41:33.107Z,13.90
2024-03-23T04:47:37.901Z,15.00
2024-03-23T04:53:53.677Z,14.60
2024-03-23T04:59:47.995Z,14.20
2024-03-23T05:06:12.055Z,14.00
2024-03-23T05:12:37.566Z,14.80
2024-03-23T05:18:56.859Z,16.60
2024-03-23T05:25:04.831Z,15.50
2024-03-23T05:31:15.751Z,16.30
2024-03-23T05:37:35.533Z,17.60
2024-03-23T05:44:01.864Z,17.20
2024-03-23T05:50:29.252Z,16.10
2024-03-23T05:56:57.830Z,17.20
2024-03-23T06:03:15.769Z,19.10
2024-03-23T06:09:16.247Z,19.30
2024-03-23T06:15:23.629Z,26.10
2024-03-23T06:21:49.444Z,19.40
2024-03-23T06:28:07.421Z,19.40
2024-03-23T06:34:23.261Z,17.80
2024-03-23T06:40:48.007Z,18.80
2024-03-23T06:46:53.329Z,20.80
2024-03-23T06:52:54.391Z,24.60
2024-03-23T06:59:10.105Z,36.80
2024-03-23T07:05:03.604Z,23.10
2024-03-23T07:11:29.262Z,19.00
2024-03-23T07:17:56.166Z,15.70
2024-03-23T07:24:03.075Z,14.20
2024-03-23T07:30:19.499Z,13.70
2024-03-23T07:36:13.440Z,13.40
2024-03-23T07:41:20.863Z,13.90
2024-03-23T07:46:44.338Z,13.40
2024-03-23T07:52:39.802Z,13.10
2024-03-23T07:58:54.394Z,13.20
2024-03-23T08:04:46.000Z,13.10
2024-03-23T08:11:10.288Z,11.40
2024-03-23T08:17:26.613Z,10.90
2024-03-23T08:23:51.552Z,10.50
2024-03-23T08:37:06.669Z,11.60
2024-03-23T08:43:15.566Z,10.20
2024-03-23T08:49:23.966Z,8.80
2024-03-23T08:55:19.037Z,9.60
2024-03-23T09:00:46.839Z,9.00
2024-03-23T09:06:56.292Z,9.10
2024-03-23T09:13:10.926Z,8.70
2024-03-23T09:19:20.065Z,9.60
2024-03-23T09:25:21.252Z,8.50
2024-03-23T09:31:20.912Z,8.50
2024-03-23T09:36:49.012Z,8.90
2024-03-23T09:42:54.921Z,9.00
2024-03-23T09:48:51.133Z,8.60
2024-03-23T09:54:57.256Z,8.90
2024-03-23T10:00:47.022Z,9.40
2024-03-23T10:06:23.202Z,9.10
2024-03-23T10:11:50.812Z,8.60
2024-03-23T10:17:36.018Z,8.40
2024-03-23T10:23:41.105Z,8.10
2024-03-23T10:29:35.296Z,8.30
2024-03-23T10:35:42.737Z,7.80
2024-03-23T10:42:01.281Z,7.80
2024-03-23T10:47:47.701Z,7.30
2024-03-23T10:53:02.116Z,7.80
2024-03-23T10:58:36.877Z,7.60
2024-03-23T11:03:48.662Z,7.10
2024-03-23T11:09:46.039Z,7.20
2024-03-23T11:16:02.958Z,6.80
2024-03-23T11:22:35.099Z,7.60
2024-03-23T11:28:50.509Z,7.70
2024-03-23T11:34:24.132Z,6.70
2024-03-23T11:40:41.346Z,7.20
2024-03-23T11:46:11.183Z,6.10
2024-03-23T11:51:31.352Z,4.90
2024-03-23T11:56:50.633Z,5.80
2024-03-23T12:02:22.908Z,5.20
2024-03-23T12:08:37.911Z,4.50
2024-03-23T12:14:32.912Z,4.50
2024-03-23T12:20:37.802Z,3.70
2024-03-23T12:26:47.686Z,4.00
2024-03-23T12:32:06.185Z,3.30
2024-03-23T12:37:58.853Z,3.20
2024-03-23T12:43:46.179Z,3.90
2024-03-23T12:49:46.595Z,4.00
2024-03-23T12:55:51.893Z,4.30
2024-03-23T13:01:49.014Z,3.40
2024-03-23T13:07:45.005Z,4.50
2024-03-23T13:13:34.394Z,5.30
2024-03-23T13:19:18.353Z,4.00
2024-03-23T13:25:22.793Z,4.00
2024-03-23T13:31:31.329Z,4.30
2024-03-23T13:37:48.055Z,5.10
2024-03-23T13:43:52.455Z,3.80
2024-03-23T13:50:28.737Z,4.30
2024-03-23T13:56:21.127Z,2.60
2024-03-23T14:01:37.203Z,2.30
2024-03-23T14:07:06.045Z,2.60
2024-03-23T14:13:03.647Z,1.70
2024-03-23T14:19:07.875Z,2.20
2024-03-23T14:25:32.611Z,1.30
2024-03-23T14:31:57.446Z,0.70
2024-03-23T14:37:55.289Z,0.80
2024-03-23T14:44:02.820Z,0.80
2024-03-23T14:50:11.720Z,0.70
2024-03-23T14:56:16.777Z,0.50
2024-03-23T15:02:14.009Z,0.60
2024-03-23T15:08:23.164Z,0.50
2024-03-23T15:14:47.408Z,0.60
2024-03-23T15:21:03.146Z,0.70
2024-03-23T15:26:33.961Z,1.00
2024-03-23T15:32:57.999Z,0.80
2024-03-23T15:39:02.229Z,1.00
2024-03-23T15:45:08.028Z,0.70
2024-03-23T15:51:33.403Z,1.20
2024-03-23T15:57:59.516Z,0.90
2024-03-23T16:03:36.226Z,0.90
2024-03-23T16:09:51.427Z,0.80
2024-03-23T16:15:57.073Z,0.80
2024-03-23T16:22:15.644Z,0.90
2024-03-23T16:28:28.398Z,0.70
2024-03-23T16:34:44.060Z,1.00
2024-03-23T16:40:51.024Z,1.10
2024-03-23T16:46:47.069Z,1.20
2024-03-23T16:53:00.463Z,1.80
2024-03-23T17:05:16.412Z,1.40
2024-03-23T17:11:22.289Z,2.00
2024-03-23T17:17:45.173Z,1.90
2024-03-23T17:23:52.748Z,2.00
2024-03-23T17:30:17.861Z,2.00
2024-03-23T17:36:24.135Z,1.80
2024-03-23T17:42:44.662Z,2.10
2024-03-23T17:49:09.658Z,1.90
2024-03-23T17:55:26.268Z,1.90
2024-03-23T18:01:00.818Z,1.90
2024-03-23T18:06:05.044Z,1.70
2024-03-23T18:12:24.248Z,1.70
2024-03-23T18:17:31.453Z,1.80
2024-03-23T18:23:27.429Z,2.10
2024-03-23T18:28:52.819Z,1.90
2024-03-23T18:33:58.456Z,2.10
2024-03-23T18:39:38.561Z,2.20
2024-03-23T18:45:29.003Z,2.20
2024-03-23T18:51:12.042Z,2.90
2024-03-23T18:57:04.659Z,2.70
2024-03-23T19:03:21.443Z,2.50
2024-03-23T19:09:04.476Z,2.60
2024-03-23T19:15:22.318Z,2.70
2024-03-23T19:21:20.457Z,2.80
2024-03-23T19:27:40.931Z,2.60
2024-03-23T19:34:06.771Z,3.00
2024-03-23T19:40:31.396Z,2.50
2024-03-23T19:46:25.513Z,2.60
2024-03-23T19:52:52.357Z,2.40
2024-03-23T19:59:08.227Z,3.00
2024-03-23T20:05:33.718Z,3.30
2024-03-23T20:18:37.533Z,4.50
2024-03-23T20:24:47.625Z,5.50
2024-03-23T20:31:04.420Z,10.40
2024-03-23T20:37:33.366Z,8.70
2024-03-23T20:43:28.785Z,6.90
2024-03-23T20:49:51.733Z,8.10
2024-03-23T20:56:18.120Z,9.70
2024-03-23T21:02:32.159Z,8.90
2024-03-23T21:09:03.208Z,9.90
2024-03-23T21:15:28.854Z,10.60
2024-03-23T21:21:52.868Z,6.60
2024-03-23T21:28:22.545Z,7.40
2024-03-23T21:34:11.411Z,6.00
2024-03-23T21:40:17.010Z,5.00
2024-03-23T21:46:34.710Z,6.10
2024-03-23T21:52:34.506Z,5.80
2024-03-23T21:57:59.900Z,5.80
2024-03-23T22:04:05.514Z,5.80
2024-03-23T22:10:21.119Z,5.80
2024-03-23T22:16:27.624Z,6.10
2024-03-23T22:22:34.674Z,4.90
2024-03-23T22:28:12.527Z,5.60
2024-03-23T22:33:40.435Z,5.70
2024-03-23T22:39:08.084Z,6.10
2024-03-23T22:44:30.789Z,5.20
2024-03-23T22:50:22.326Z,5.30
2024-03-23T22:55:53.170Z,6.70
2024-03-23T23:01:36.635Z,5.90
2024-03-23T23:07:06.820Z,5.70
2024-03-23T23:12:43.925Z,6.80
2024-03-23T23:17:51.778Z,6.20
2024-03-23T23:23:23.905Z,6.00
2024-03-23T23:29:04.007Z,5.30
2024-03-23T23:34:41.288Z,6.40
2024-03-23T23:40:35.663Z,5.90
2024-03-23T23:46:02.828Z,5.70
2024-03-23T23:52:18.127Z,5.90
2024-03-23T23:58:22.328Z,6.70
